sensor_id;sensor_type;location;lat;lon;timestamp;P1;durP1;ratioP1;P2;durP2;ratioP2
2486;SDS011;1254;49.144;8.212;2022-10-22T00:00:22;1.83;;;1.20;;
2486;SDS011;1254;49.144;8.212;2022-10-22T00:02:50;3.53;;;1.30;;
2486;SDS011;1254;49.144;8.212;2022-10-22T00:05:18;5.20;;;1.33;;
2486;SDS011;1254;49.144;8.212;2022-10-22T00:07:46;1.50;;;1.17;;
2486;SDS011;1254;49.144;8.212;2022-10-22T00:10:15;3.57;;;1.20;;
2486;SDS011;1254;49.144;8.212;2022-10-22T00:12:44;1.57;;;1.47;;
2486;SDS011;1254;49.144;8.212;2022-10-22T00:15:12;1.53;;;1.43;;
2486;SDS011;1254;49.144;8.212;2022-10-22T00:17:42;2.30;;;1.33;;
2486;SDS011;1254;49.144;8.212;2022-10-22T00:20:10;3.37;;;1.57;;
2486;SDS011;1254;49.144;8.212;2022-10-22T00:22:38;2.73;;;1.17;;
2486;SDS011;1254;49.144;8.212;2022-10-22T00:25:07;5.53;;;1.40;;
2486;SDS011;1254;49.144;8.212;2022-10-22T00:27:36;2.50;;;1.20;;
2486;SDS011;1254;49.144;8.212;2022-10-22T00:30:04;2.47;;;1.40;;
2486;SDS011;1254;49.144;8.212;2022-10-22T00:32:33;1.50;;;1.37;;
2486;SDS011;1254;49.144;8.212;2022-10-22T00:35:01;1.43;;;1.13;;
2486;SDS011;1254;49.144;8.212;2022-10-22T00:37:29;4.60;;;1.70;;
2486;SDS011;1254;49.144;8.212;2022-10-22T00:39:57;5.00;;;1.43;;
2486;SDS011;1254;49.144;8.212;2022-10-22T00:42:26;1.63;;;1.17;;
2486;SDS011;1254;49.144;8.212;2022-10-22T00:45:09;2.20;;;1.30;;
2486;SDS011;1254;49.144;8.212;2022-10-22T00:47:43;1.20;;;1.10;;
2486;SDS011;1254;49.144;8.212;2022-10-22T00:50:16;2.83;;;1.40;;
2486;SDS011;1254;49.144;8.212;2022-10-22T00:52:46;1.30;;;1.20;;
2486;SDS011;1254;49.144;8.212;2022-10-22T00:55:14;1.63;;;1.43;;
2486;SDS011;1254;49.144;8.212;2022-10-22T00:57:43;1.30;;;1.20;;
2486;SDS011;1254;49.144;8.212;2022-10-22T01:00:14;2.37;;;1.33;;
2486;SDS011;1254;49.144;8.212;2022-10-22T01:02:43;1.80;;;1.43;;
2486;SDS011;1254;49.144;8.212;2022-10-22T01:05:12;4.30;;;1.30;;
2486;SDS011;1254;49.144;8.212;2022-10-22T01:07:40;1.67;;;1.17;;
2486;SDS011;1254;49.144;8.212;2022-10-22T01:10:13;1.40;;;1.30;;
2486;SDS011;1254;49.144;8.212;2022-10-22T01:12:54;3.73;;;1.10;;
2486;SDS011;1254;49.144;8.212;2022-10-22T01:15:34;6.53;;;1.20;;
2486;SDS011;1254;49.144;8.212;2022-10-22T01:18:05;1.33;;;1.10;;
2486;SDS011;1254;49.144;8.212;2022-10-22T01:20:39;1.90;;;1.37;;
2486;SDS011;1254;49.144;8.212;2022-10-22T01:26:31;2.40;;;1.30;;
2486;SDS011;1254;49.144;8.212;2022-10-22T01:29:09;1.40;;;1.03;;
2486;SDS011;1254;49.144;8.212;2022-10-22T01:31:41;2.80;;;1.50;;
2486;SDS011;1254;49.144;8.212;2022-10-22T01:34:13;3.33;;;1.27;;
2486;SDS011;1254;49.144;8.212;2022-10-22T01:36:43;2.93;;;1.20;;
2486;SDS011;1254;49.144;8.212;2022-10-22T01:39:12;2.17;;;1.30;;
2486;SDS011;1254;49.144;8.212;2022-10-22T01:41:42;2.03;;;1.10;;
2486;SDS011;1254;49.144;8.212;2022-10-22T01:44:23;1.67;;;1.00;;
2486;SDS011;1254;49.144;8.212;2022-10-22T01:46:52;1.53;;;1.40;;
2486;SDS011;1254;49.144;8.212;2022-10-22T01:49:27;0.93;;;0.93;;
2486;SDS011;1254;49.144;8.212;2022-10-22T01:52:06;1.30;;;1.00;;
2486;SDS011;1254;49.144;8.212;2022-10-22T01:54:43;3.23;;;1.50;;
2486;SDS011;1254;49.144;8.212;2022-10-22T01:57:16;1.47;;;0.83;;
2486;SDS011;1254;49.144;8.212;2022-10-22T01:59:58;1.30;;;0.97;;
2486;SDS011;1254;49.144;8.212;2022-10-22T02:02:33;1.70;;;1.00;;
2486;SDS011;1254;49.144;8.212;2022-10-22T02:05:08;8.63;;;1.63;;
2486;SDS011;1254;49.144;8.212;2022-10-22T02:07:40;1.40;;;1.10;;
2486;SDS011;1254;49.144;8.212;2022-10-22T02:10:13;1.40;;;0.87;;
2486;SDS011;1254;49.144;8.212;2022-10-22T02:12:43;6.37;;;0.90;;
2486;SDS011;1254;49.144;8.212;2022-10-22T02:15:17;2.50;;;0.70;;
2486;SDS011;1254;49.144;8.212;2022-10-22T02:17:48;2.10;;;0.57;;
2486;SDS011;1254;49.144;8.212;2022-10-22T02:20:17;1.37;;;0.80;;
2486;SDS011;1254;49.144;8.212;2022-10-22T02:22:49;4.47;;;0.70;;
2486;SDS011;1254;49.144;8.212;2022-10-22T02:25:17;0.70;;;0.60;;
2486;SDS011;1254;49.144;8.212;2022-10-22T02:27:48;0.70;;;0.70;;
2486;SDS011;1254;49.144;8.212;2022-10-22T02:30:24;2.50;;;0.83;;
2486;SDS011;1254;49.144;8.212;2022-10-22T02:32:53;1.00;;;0.90;;
2486;SDS011;1254;49.144;8.212;2022-10-22T02:35:26;1.93;;;0.90;;
2486;SDS011;1254;49.144;8.212;2022-10-22T02:37:56;1.47;;;1.20;;
2486;SDS011;1254;49.144;8.212;2022-10-22T02:40:25;3.60;;;1.10;;
2486;SDS011;1254;49.144;8.212;2022-10-22T02:42:56;1.67;;;1.03;;
2486;SDS011;1254;49.144;8.212;2022-10-22T02:45:25;0.80;;;0.80;;
2486;SDS011;1254;49.144;8.212;2022-10-22T02:47:53;1.70;;;1.20;;
2486;SDS011;1254;49.144;8.212;2022-10-22T02:50:21;2.60;;;1.30;;
2486;SDS011;1254;49.144;8.212;2022-10-22T02:52:49;2.80;;;1.10;;
2486;SDS011;1254;49.144;8.212;2022-10-22T02:55:17;2.47;;;1.43;;
2486;SDS011;1254;49.144;8.212;2022-10-22T02:57:45;3.57;;;1.60;;
2486;SDS011;1254;49.144;8.212;2022-10-22T03:00:13;9.10;;;1.77;;
2486;SDS011;1254;49.144;8.212;2022-10-22T03:02:43;3.23;;;1.57;;
2486;SDS011;1254;49.144;8.212;2022-10-22T03:05:11;3.77;;;1.67;;
2486;SDS011;1254;49.144;8.212;2022-10-22T03:07:40;7.13;;;1.77;;
2486;SDS011;1254;49.144;8.212;2022-10-22T03:10:08;1.67;;;1.47;;
2486;SDS011;1254;49.144;8.212;2022-10-22T03:12:36;3.70;;;1.13;;
2486;SDS011;1254;49.144;8.212;2022-10-22T03:15:04;1.57;;;1.30;;
2486;SDS011;1254;49.144;8.212;2022-10-22T03:17:32;2.37;;;1.20;;
2486;SDS011;1254;49.144;8.212;2022-10-22T03:20:02;1.77;;;1.67;;
2486;SDS011;1254;49.144;8.212;2022-10-22T03:22:30;3.17;;;1.63;;
2486;SDS011;1254;49.144;8.212;2022-10-22T03:25:02;3.33;;;2.13;;
2486;SDS011;1254;49.144;8.212;2022-10-22T03:27:33;1.40;;;1.30;;
2486;SDS011;1254;49.144;8.212;2022-10-22T03:30:03;5.07;;;2.10;;
2486;SDS011;1254;49.144;8.212;2022-10-22T03:32:32;2.70;;;1.50;;
2486;SDS011;1254;49.144;8.212;2022-10-22T03:35:01;3.90;;;1.80;;
2486;SDS011;1254;49.144;8.212;2022-10-22T03:37:30;4.27;;;2.07;;
2486;SDS011;1254;49.144;8.212;2022-10-22T03:39:59;1.83;;;1.73;;
2486;SDS011;1254;49.144;8.212;2022-10-22T03:42:28;4.60;;;1.83;;
2486;SDS011;1254;49.144;8.212;2022-10-22T03:44:56;2.50;;;1.97;;
2486;SDS011;1254;49.144;8.212;2022-10-22T03:47:24;1.60;;;1.50;;
2486;SDS011;1254;49.144;8.212;2022-10-22T03:49:52;2.93;;;1.67;;
2486;SDS011;1254;49.144;8.212;2022-10-22T03:52:21;1.67;;;1.57;;
2486;SDS011;1254;49.144;8.212;2022-10-22T03:54:49;2.37;;;1.40;;
2486;SDS011;1254;49.144;8.212;2022-10-22T03:57:17;5.50;;;1.70;;
2486;SDS011;1254;49.144;8.212;2022-10-22T03:59:45;4.87;;;1.87;;
2486;SDS011;1254;49.144;8.212;2022-10-22T04:02:13;13.87;;;2.60;;
2486;SDS011;1254;49.144;8.212;2022-10-22T04:04:41;4.23;;;2.90;;
2486;SDS011;1254;49.144;8.212;2022-10-22T04:07:09;8.53;;;2.70;;
2486;SDS011;1254;49.144;8.212;2022-10-22T04:09:38;4.80;;;3.30;;
2486;SDS011;1254;49.144;8.212;2022-10-22T04:12:06;3.20;;;2.80;;
2486;SDS011;1254;49.144;8.212;2022-10-22T04:14:34;4.07;;;2.97;;
2486;SDS011;1254;49.144;8.212;2022-10-22T04:17:02;2.90;;;2.70;;
2486;SDS011;1254;49.144;8.212;2022-10-22T04:19:30;3.37;;;2.13;;
2486;SDS011;1254;49.144;8.212;2022-10-22T04:21:58;2.57;;;2.37;;
2486;SDS011;1254;49.144;8.212;2022-10-22T04:24:26;2.80;;;2.63;;
2486;SDS011;1254;49.144;8.212;2022-10-22T04:26:57;2.37;;;2.20;;
2486;SDS011;1254;49.144;8.212;2022-10-22T04:29:25;2.10;;;1.93;;
2486;SDS011;1254;49.144;8.212;2022-10-22T04:31:53;2.57;;;2.40;;
2486;SDS011;1254;49.144;8.212;2022-10-22T04:34:21;6.20;;;1.97;;
2486;SDS011;1254;49.144;8.212;2022-10-22T04:36:49;2.20;;;2.00;;
2486;SDS011;1254;49.144;8.212;2022-10-22T04:39:17;5.80;;;2.00;;
2486;SDS011;1254;49.144;8.212;2022-10-22T04:41:45;2.97;;;2.10;;
2486;SDS011;1254;49.144;8.212;2022-10-22T04:44:14;1.80;;;1.70;;
2486;SDS011;1254;49.144;8.212;2022-10-22T04:46:42;1.80;;;1.70;;
2486;SDS011;1254;49.144;8.212;2022-10-22T04:49:10;3.70;;;2.37;;
2486;SDS011;1254;49.144;8.212;2022-10-22T04:51:38;4.50;;;1.93;;
2486;SDS011;1254;49.144;8.212;2022-10-22T04:54:06;2.60;;;1.83;;
2486;SDS011;1254;49.144;8.212;2022-10-22T04:56:34;1.90;;;1.80;;
2486;SDS011;1254;49.144;8.212;2022-10-22T04:59:02;1.63;;;1.53;;
2486;SDS011;1254;49.144;8.212;2022-10-22T05:01:33;2.93;;;2.20;;
2486;SDS011;1254;49.144;8.212;2022-10-22T05:04:03;6.10;;;2.30;;
2486;SDS011;1254;49.144;8.212;2022-10-22T05:06:32;3.90;;;2.53;;
2486;SDS011;1254;49.144;8.212;2022-10-22T05:09:03;2.03;;;1.93;;
2486;SDS011;1254;49.144;8.212;2022-10-22T05:11:32;2.27;;;2.07;;
2486;SDS011;1254;49.144;8.212;2022-10-22T05:14:05;3.00;;;2.20;;
2486;SDS011;1254;49.144;8.212;2022-10-22T05:16:36;3.77;;;1.90;;
2486;SDS011;1254;49.144;8.212;2022-10-22T05:19:04;2.33;;;2.23;;
2486;SDS011;1254;49.144;8.212;2022-10-22T05:21:33;4.80;;;2.07;;
2486;SDS011;1254;49.144;8.212;2022-10-22T05:24:01;2.37;;;2.17;;
2486;SDS011;1254;49.144;8.212;2022-10-22T05:26:29;1.97;;;1.87;;
2486;SDS011;1254;49.144;8.212;2022-10-22T05:28:57;2.40;;;2.20;;
2486;SDS011;1254;49.144;8.212;2022-10-22T05:31:25;2.57;;;2.47;;
2486;SDS011;1254;49.144;8.212;2022-10-22T05:33:55;5.53;;;2.70;;
2486;SDS011;1254;49.144;8.212;2022-10-22T05:36:26;4.93;;;2.57;;
2486;SDS011;1254;49.144;8.212;2022-10-22T05:38:55;5.23;;;2.60;;
2486;SDS011;1254;49.144;8.212;2022-10-22T05:41:24;2.77;;;2.57;;
2486;SDS011;1254;49.144;8.212;2022-10-22T05:43:53;2.93;;;2.70;;
2486;SDS011;1254;49.144;8.212;2022-10-22T05:46:23;3.40;;;3.10;;
2486;SDS011;1254;49.144;8.212;2022-10-22T05:48:52;3.03;;;2.73;;
2486;SDS011;1254;49.144;8.212;2022-10-22T05:51:23;4.27;;;2.80;;
2486;SDS011;1254;49.144;8.212;2022-10-22T05:53:52;3.53;;;2.60;;
2486;SDS011;1254;49.144;8.212;2022-10-22T05:56:21;3.80;;;3.50;;
2486;SDS011;1254;49.144;8.212;2022-10-22T05:58:49;3.17;;;2.83;;
2486;SDS011;1254;49.144;8.212;2022-10-22T06:01:18;4.73;;;2.90;;
2486;SDS011;1254;49.144;8.212;2022-10-22T06:03:47;4.07;;;2.90;;
2486;SDS011;1254;49.144;8.212;2022-10-22T06:06:17;5.40;;;3.07;;
2486;SDS011;1254;49.144;8.212;2022-10-22T06:08:49;3.20;;;2.63;;
2486;SDS011;1254;49.144;8.212;2022-10-22T06:11:18;3.20;;;2.90;;
2486;SDS011;1254;49.144;8.212;2022-10-22T06:13:47;4.20;;;2.50;;
2486;SDS011;1254;49.144;8.212;2022-10-22T06:16:16;2.83;;;2.50;;
2486;SDS011;1254;49.144;8.212;2022-10-22T06:18:44;2.73;;;2.60;;
2486;SDS011;1254;49.144;8.212;2022-10-22T06:21:13;3.27;;;2.97;;
2486;SDS011;1254;49.144;8.212;2022-10-22T06:23:42;3.63;;;2.67;;
2486;SDS011;1254;49.144;8.212;2022-10-22T06:26:12;4.63;;;2.47;;
2486;SDS011;1254;49.144;8.212;2022-10-22T06:28:40;2.20;;;2.10;;
2486;SDS011;1254;49.144;8.212;2022-10-22T06:31:08;2.30;;;2.10;;
2486;SDS011;1254;49.144;8.212;2022-10-22T06:33:36;3.30;;;2.43;;
2486;SDS011;1254;49.144;8.212;2022-10-22T06:36:09;3.73;;;2.27;;
2486;SDS011;1254;49.144;8.212;2022-10-22T06:38:38;2.33;;;2.13;;
2486;SDS011;1254;49.144;8.212;2022-10-22T06:41:07;2.07;;;1.87;;
2486;SDS011;1254;49.144;8.212;2022-10-22T06:43:37;3.10;;;1.90;;
2486;SDS011;1254;49.144;8.212;2022-10-22T06:46:06;2.20;;;2.00;;
2486;SDS011;1254;49.144;8.212;2022-10-22T06:48:36;2.87;;;2.10;;
2486;SDS011;1254;49.144;8.212;2022-10-22T06:51:06;7.53;;;2.07;;
2486;SDS011;1254;49.144;8.212;2022-10-22T06:53:35;3.63;;;1.60;;
2486;SDS011;1254;49.144;8.212;2022-10-22T06:56:04;1.67;;;1.57;;
2486;SDS011;1254;49.144;8.212;2022-10-22T06:58:32;4.27;;;1.90;;
2486;SDS011;1254;49.144;8.212;2022-10-22T07:01:02;2.17;;;1.13;;
2486;SDS011;1254;49.144;8.212;2022-10-22T07:03:32;1.83;;;1.20;;
2486;SDS011;1254;49.144;8.212;2022-10-22T07:06:04;3.63;;;1.50;;
2486;SDS011;1254;49.144;8.212;2022-10-22T07:08:34;2.80;;;2.00;;
2486;SDS011;1254;49.144;8.212;2022-10-22T07:11:04;2.83;;;1.63;;
2486;SDS011;1254;49.144;8.212;2022-10-22T07:13:33;2.73;;;1.30;;
2486;SDS011;1254;49.144;8.212;2022-10-22T07:16:03;2.27;;;1.60;;
2486;SDS011;1254;49.144;8.212;2022-10-22T07:18:32;2.13;;;1.50;;
2486;SDS011;1254;49.144;8.212;2022-10-22T07:21:01;2.43;;;2.17;;
2486;SDS011;1254;49.144;8.212;2022-10-22T07:23:29;3.50;;;2.10;;
2486;SDS011;1254;49.144;8.212;2022-10-22T07:25:57;2.07;;;1.90;;
2486;SDS011;1254;49.144;8.212;2022-10-22T07:28:27;2.20;;;2.07;;
2486;SDS011;1254;49.144;8.212;2022-10-22T07:30:55;1.80;;;1.70;;
2486;SDS011;1254;49.144;8.212;2022-10-22T07:33:25;1.23;;;1.13;;
2486;SDS011;1254;49.144;8.212;2022-10-22T07:35:56;1.10;;;1.00;;
2486;SDS011;1254;49.144;8.212;2022-10-22T07:38:26;5.73;;;1.30;;
2486;SDS011;1254;49.144;8.212;2022-10-22T07:40:54;1.40;;;1.30;;
2486;SDS011;1254;49.144;8.212;2022-10-22T07:43:22;2.70;;;1.37;;
2486;SDS011;1254;49.144;8.212;2022-10-22T07:45:51;1.30;;;1.20;;
2486;SDS011;1254;49.144;8.212;2022-10-22T07:48:21;1.30;;;1.20;;
2486;SDS011;1254;49.144;8.212;2022-10-22T07:50:51;2.60;;;0.90;;
2486;SDS011;1254;49.144;8.212;2022-10-22T07:53:19;2.27;;;1.60;;
2486;SDS011;1254;49.144;8.212;2022-10-22T07:55:47;1.00;;;1.00;;
2486;SDS011;1254;49.144;8.212;2022-10-22T07:58:15;2.70;;;1.70;;
2486;SDS011;1254;49.144;8.212;2022-10-22T08:00:44;2.67;;;1.60;;
2486;SDS011;1254;49.144;8.212;2022-10-22T08:03:13;1.43;;;1.33;;
2486;SDS011;1254;49.144;8.212;2022-10-22T08:05:43;3.20;;;1.87;;
2486;SDS011;1254;49.144;8.212;2022-10-22T08:08:13;4.80;;;2.17;;
2486;SDS011;1254;49.144;8.212;2022-10-22T08:10:42;1.83;;;1.73;;
2486;SDS011;1254;49.144;8.212;2022-10-22T08:13:10;1.80;;;1.70;;
2486;SDS011;1254;49.144;8.212;2022-10-22T08:15:38;3.10;;;1.60;;
2486;SDS011;1254;49.144;8.212;2022-10-22T08:18:06;1.80;;;1.40;;
2486;SDS011;1254;49.144;8.212;2022-10-22T08:20:34;2.37;;;1.73;;
2486;SDS011;1254;49.144;8.212;2022-10-22T08:23:02;1.50;;;1.40;;
2486;SDS011;1254;49.144;8.212;2022-10-22T08:25:32;2.20;;;1.50;;
2486;SDS011;1254;49.144;8.212;2022-10-22T08:28:00;6.13;;;1.70;;
2486;SDS011;1254;49.144;8.212;2022-10-22T08:30:28;1.80;;;1.70;;
2486;SDS011;1254;49.144;8.212;2022-10-22T08:32:56;2.80;;;1.63;;
2486;SDS011;1254;49.144;8.212;2022-10-22T08:35:23;1.63;;;1.53;;
2486;SDS011;1254;49.144;8.212;2022-10-22T08:37:51;1.50;;;1.40;;
2486;SDS011;1254;49.144;8.212;2022-10-22T08:40:20;1.53;;;1.43;;
2486;SDS011;1254;49.144;8.212;2022-10-22T08:45:52;1.40;;;1.30;;
2486;SDS011;1254;49.144;8.212;2022-10-22T08:48:36;1.20;;;1.10;;
2486;SDS011;1254;49.144;8.212;2022-10-22T08:51:14;1.80;;;1.70;;
2486;SDS011;1254;49.144;8.212;2022-10-22T08:53:52;2.03;;;1.40;;
2486;SDS011;1254;49.144;8.212;2022-10-22T08:56:35;1.33;;;1.23;;
2486;SDS011;1254;49.144;8.212;2022-10-22T08:59:08;2.80;;;1.60;;
2486;SDS011;1254;49.144;8.212;2022-10-22T09:01:41;1.03;;;0.80;;
2486;SDS011;1254;49.144;8.212;2022-10-22T09:04:15;1.97;;;1.20;;
2486;SDS011;1254;49.144;8.212;2022-10-22T09:06:51;1.17;;;1.10;;
2486;SDS011;1254;49.144;8.212;2022-10-22T09:09:19;2.47;;;1.30;;
2486;SDS011;1254;49.144;8.212;2022-10-22T09:11:48;2.10;;;1.40;;
2486;SDS011;1254;49.144;8.212;2022-10-22T09:14:19;1.77;;;1.30;;
2486;SDS011;1254;49.144;8.212;2022-10-22T09:17:01;3.93;;;1.73;;
2486;SDS011;1254;49.144;8.212;2022-10-22T09:19:40;1.53;;;1.43;;
2486;SDS011;1254;49.144;8.212;2022-10-22T09:22:23;1.07;;;0.80;;
2486;SDS011;1254;49.144;8.212;2022-10-22T09:25:01;1.77;;;1.13;;
2486;SDS011;1254;49.144;8.212;2022-10-22T09:27:42;4.00;;;1.47;;
2486;SDS011;1254;49.144;8.212;2022-10-22T09:30:14;1.40;;;1.20;;
2486;SDS011;1254;49.144;8.212;2022-10-22T09:32:44;6.67;;;1.13;;
2486;SDS011;1254;49.144;8.212;2022-10-22T09:35:12;1.30;;;1.20;;
2486;SDS011;1254;49.144;8.212;2022-10-22T09:37:46;1.97;;;1.10;;
2486;SDS011;1254;49.144;8.212;2022-10-22T09:40:16;5.70;;;1.97;;
2486;SDS011;1254;49.144;8.212;2022-10-22T09:42:45;1.23;;;1.00;;
2486;SDS011;1254;49.144;8.212;2022-10-22T09:45:19;1.47;;;1.10;;
2486;SDS011;1254;49.144;8.212;2022-10-22T09:47:49;1.17;;;0.90;;
2486;SDS011;1254;49.144;8.212;2022-10-22T09:50:36;5.03;;;2.10;;
2486;SDS011;1254;49.144;8.212;2022-10-22T09:53:13;2.00;;;1.00;;
2486;SDS011;1254;49.144;8.212;2022-10-22T09:55:50;2.90;;;1.27;;
2486;SDS011;1254;49.144;8.212;2022-10-22T09:58:20;2.60;;;1.30;;
2486;SDS011;1254;49.144;8.212;2022-10-22T10:00:51;3.67;;;1.70;;
2486;SDS011;1254;49.144;8.212;2022-10-22T10:03:21;3.83;;;1.07;;
2486;SDS011;1254;49.144;8.212;2022-10-22T10:05:51;1.50;;;1.13;;
2486;SDS011;1254;49.144;8.212;2022-10-22T10:08:20;1.50;;;1.03;;
2486;SDS011;1254;49.144;8.212;2022-10-22T10:10:50;1.20;;;1.00;;
2486;SDS011;1254;49.144;8.212;2022-10-22T10:13:29;2.47;;;1.87;;
2486;SDS011;1254;49.144;8.212;2022-10-22T10:16:08;6.93;;;1.63;;
2486;SDS011;1254;49.144;8.212;2022-10-22T10:18:49;1.40;;;1.30;;
2486;SDS011;1254;49.144;8.212;2022-10-22T10:21:29;5.90;;;1.50;;
2486;SDS011;1254;49.144;8.212;2022-10-22T10:24:07;1.43;;;1.10;;
2486;SDS011;1254;49.144;8.212;2022-10-22T10:26:47;2.40;;;1.43;;
2486;SDS011;1254;49.144;8.212;2022-10-22T10:29:26;4.53;;;1.50;;
2486;SDS011;1254;49.144;8.212;2022-10-22T10:32:09;2.70;;;1.30;;
2486;SDS011;1254;49.144;8.212;2022-10-22T10:34:51;2.23;;;1.40;;
2486;SDS011;1254;49.144;8.212;2022-10-22T10:37:28;3.33;;;2.80;;
2486;SDS011;1254;49.144;8.212;2022-10-22T10:40:02;1.77;;;1.50;;
2486;SDS011;1254;49.144;8.212;2022-10-22T10:42:42;2.60;;;2.40;;
2486;SDS011;1254;49.144;8.212;2022-10-22T10:45:16;4.70;;;1.90;;
2486;SDS011;1254;49.144;8.212;2022-10-22T10:47:55;2.90;;;2.13;;
2486;SDS011;1254;49.144;8.212;2022-10-22T10:50:49;3.27;;;2.00;;
2486;SDS011;1254;49.144;8.212;2022-10-22T10:53:25;6.53;;;2.70;;
2486;SDS011;1254;49.144;8.212;2022-10-22T10:56:04;2.83;;;1.73;;
2486;SDS011;1254;49.144;8.212;2022-10-22T10:58:40;4.60;;;1.50;;
2486;SDS011;1254;49.144;8.212;2022-10-22T11:01:18;3.83;;;1.00;;
2486;SDS011;1254;49.144;8.212;2022-10-22T11:06:58;1.73;;;1.40;;
2486;SDS011;1254;49.144;8.212;2022-10-22T11:09:31;4.40;;;2.30;;
2486;SDS011;1254;49.144;8.212;2022-10-22T11:12:04;3.17;;;1.47;;
2486;SDS011;1254;49.144;8.212;2022-10-22T11:14:40;4.07;;;1.50;;
2486;SDS011;1254;49.144;8.212;2022-10-22T11:17:18;3.17;;;1.13;;
2486;SDS011;1254;49.144;8.212;2022-10-22T11:19:51;5.93;;;1.27;;
2486;SDS011;1254;49.144;8.212;2022-10-22T11:22:27;6.07;;;1.80;;
2486;SDS011;1254;49.144;8.212;2022-10-22T11:24:59;3.77;;;1.50;;
2486;SDS011;1254;49.144;8.212;2022-10-22T11:27:32;1.83;;;1.43;;
2486;SDS011;1254;49.144;8.212;2022-10-22T11:30:03;2.30;;;1.20;;
2486;SDS011;1254;49.144;8.212;2022-10-22T11:32:38;3.50;;;1.67;;
2486;SDS011;1254;49.144;8.212;2022-10-22T11:35:11;4.00;;;1.50;;
2486;SDS011;1254;49.144;8.212;2022-10-22T11:37:42;2.50;;;1.20;;
2486;SDS011;1254;49.144;8.212;2022-10-22T11:40:13;2.77;;;1.30;;
2486;SDS011;1254;49.144;8.212;2022-10-22T11:42:47;3.40;;;1.33;;
2486;SDS011;1254;49.144;8.212;2022-10-22T11:45:28;2.90;;;1.30;;
2486;SDS011;1254;49.144;8.212;2022-10-22T11:47:59;2.00;;;1.50;;
2486;SDS011;1254;49.144;8.212;2022-10-22T11:50:44;4.10;;;1.70;;
2486;SDS011;1254;49.144;8.212;2022-10-22T11:53:17;2.83;;;1.40;;
2486;SDS011;1254;49.144;8.212;2022-10-22T11:55:47;1.70;;;1.60;;
2486;SDS011;1254;49.144;8.212;2022-10-22T11:58:25;2.37;;;1.37;;
2486;SDS011;1254;49.144;8.212;2022-10-22T12:01:15;1.57;;;1.47;;
2486;SDS011;1254;49.144;8.212;2022-10-22T12:03:48;5.23;;;1.40;;
2486;SDS011;1254;49.144;8.212;2022-10-22T12:06:20;4.33;;;1.90;;
2486;SDS011;1254;49.144;8.212;2022-10-22T12:08:51;3.13;;;1.90;;
2486;SDS011;1254;49.144;8.212;2022-10-22T12:11:24;1.43;;;1.33;;
2486;SDS011;1254;49.144;8.212;2022-10-22T12:13:56;2.03;;;1.83;;
2486;SDS011;1254;49.144;8.212;2022-10-22T12:16:35;2.60;;;1.80;;
2486;SDS011;1254;49.144;8.212;2022-10-22T12:19:06;6.30;;;2.33;;
2486;SDS011;1254;49.144;8.212;2022-10-22T12:21:42;6.83;;;2.10;;
2486;SDS011;1254;49.144;8.212;2022-10-22T12:24:15;2.17;;;1.60;;
2486;SDS011;1254;49.144;8.212;2022-10-22T12:26:47;5.90;;;2.10;;
2486;SDS011;1254;49.144;8.212;2022-10-22T12:29:18;2.63;;;1.80;;
2486;SDS011;1254;49.144;8.212;2022-10-22T12:31:51;2.57;;;2.00;;
2486;SDS011;1254;49.144;8.212;2022-10-22T12:34:20;2.17;;;2.07;;
2486;SDS011;1254;49.144;8.212;2022-10-22T12:36:51;2.63;;;2.43;;
2486;SDS011;1254;49.144;8.212;2022-10-22T12:39:20;2.60;;;2.40;;
2486;SDS011;1254;49.144;8.212;2022-10-22T12:41:51;4.43;;;2.43;;
2486;SDS011;1254;49.144;8.212;2022-10-22T12:44:20;6.73;;;2.60;;
2486;SDS011;1254;49.144;8.212;2022-10-22T12:46:48;1.70;;;1.60;;
2486;SDS011;1254;49.144;8.212;2022-10-22T12:49:18;3.10;;;1.90;;
2486;SDS011;1254;49.144;8.212;2022-10-22T12:51:48;2.40;;;2.20;;
2486;SDS011;1254;49.144;8.212;2022-10-22T12:54:21;3.33;;;1.90;;
2486;SDS011;1254;49.144;8.212;2022-10-22T12:56:51;4.03;;;2.40;;
2486;SDS011;1254;49.144;8.212;2022-10-22T12:59:22;5.53;;;2.50;;
2486;SDS011;1254;49.144;8.212;2022-10-22T13:01:52;4.40;;;2.37;;
2486;SDS011;1254;49.144;8.212;2022-10-22T13:04:29;2.83;;;2.10;;
2486;SDS011;1254;49.144;8.212;2022-10-22T13:07:05;2.90;;;2.60;;
2486;SDS011;1254;49.144;8.212;2022-10-22T13:09:43;5.23;;;2.20;;
2486;SDS011;1254;49.144;8.212;2022-10-22T13:12:13;12.23;;;8.53;;
2486;SDS011;1254;49.144;8.212;2022-10-22T13:14:44;4.43;;;3.53;;
2486;SDS011;1254;49.144;8.212;2022-10-22T13:17:13;3.03;;;2.70;;
2486;SDS011;1254;49.144;8.212;2022-10-22T13:19:44;2.50;;;2.30;;
2486;SDS011;1254;49.144;8.212;2022-10-22T13:22:25;2.57;;;2.37;;
2486;SDS011;1254;49.144;8.212;2022-10-22T13:24:55;3.20;;;3.00;;
2486;SDS011;1254;49.144;8.212;2022-10-22T13:27:25;5.40;;;3.10;;
2486;SDS011;1254;49.144;8.212;2022-10-22T13:29:54;6.17;;;2.60;;
2486;SDS011;1254;49.144;8.212;2022-10-22T13:32:27;3.03;;;2.80;;
2486;SDS011;1254;49.144;8.212;2022-10-22T13:34:57;5.47;;;2.47;;
2486;SDS011;1254;49.144;8.212;2022-10-22T13:37:28;5.03;;;3.70;;
2486;SDS011;1254;49.144;8.212;2022-10-22T13:39:59;3.00;;;2.50;;
2486;SDS011;1254;49.144;8.212;2022-10-22T13:42:27;7.70;;;2.80;;
2486;SDS011;1254;49.144;8.212;2022-10-22T13:44:55;3.70;;;3.33;;
2486;SDS011;1254;49.144;8.212;2022-10-22T13:47:26;3.00;;;2.70;;
2486;SDS011;1254;49.144;8.212;2022-10-22T13:49:57;4.00;;;2.87;;
2486;SDS011;1254;49.144;8.212;2022-10-22T13:52:28;3.30;;;3.10;;
2486;SDS011;1254;49.144;8.212;2022-10-22T13:55:05;3.40;;;3.07;;
2486;SDS011;1254;49.144;8.212;2022-10-22T13:57:40;4.53;;;3.37;;
2486;SDS011;1254;49.144;8.212;2022-10-22T14:00:10;3.47;;;3.17;;
2486;SDS011;1254;49.144;8.212;2022-10-22T14:02:39;3.47;;;3.33;;
2486;SDS011;1254;49.144;8.212;2022-10-22T14:05:07;5.17;;;3.27;;
2486;SDS011;1254;49.144;8.212;2022-10-22T14:07:38;5.00;;;2.93;;
2486;SDS011;1254;49.144;8.212;2022-10-22T14:10:12;5.90;;;3.20;;
2486;SDS011;1254;49.144;8.212;2022-10-22T14:12:42;4.37;;;3.30;;
2486;SDS011;1254;49.144;8.212;2022-10-22T14:15:11;7.60;;;3.30;;
2486;SDS011;1254;49.144;8.212;2022-10-22T14:17:40;7.13;;;3.17;;
2486;SDS011;1254;49.144;8.212;2022-10-22T14:20:13;4.17;;;3.50;;
2486;SDS011;1254;49.144;8.212;2022-10-22T14:22:46;3.73;;;3.53;;
2486;SDS011;1254;49.144;8.212;2022-10-22T14:25:15;3.13;;;2.90;;
2486;SDS011;1254;49.144;8.212;2022-10-22T14:27:45;2.80;;;2.60;;
2486;SDS011;1254;49.144;8.212;2022-10-22T14:30:13;3.77;;;3.27;;
2486;SDS011;1254;49.144;8.212;2022-10-22T14:32:42;5.53;;;3.53;;
2486;SDS011;1254;49.144;8.212;2022-10-22T14:35:10;6.53;;;3.40;;
2486;SDS011;1254;49.144;8.212;2022-10-22T14:37:40;5.03;;;3.63;;
2486;SDS011;1254;49.144;8.212;2022-10-22T14:40:11;4.03;;;3.53;;
2486;SDS011;1254;49.144;8.212;2022-10-22T14:42:41;3.40;;;3.20;;
2486;SDS011;1254;49.144;8.212;2022-10-22T14:45:11;5.10;;;3.60;;
2486;SDS011;1254;49.144;8.212;2022-10-22T14:47:42;3.67;;;3.37;;
2486;SDS011;1254;49.144;8.212;2022-10-22T14:50:10;5.63;;;3.33;;
2486;SDS011;1254;49.144;8.212;2022-10-22T14:52:38;3.40;;;3.23;;
2486;SDS011;1254;49.144;8.212;2022-10-22T14:55:10;3.67;;;3.37;;
2486;SDS011;1254;49.144;8.212;2022-10-22T14:57:38;3.87;;;3.57;;
2486;SDS011;1254;49.144;8.212;2022-10-22T15:00:07;3.80;;;2.90;;
2486;SDS011;1254;49.144;8.212;2022-10-22T15:02:37;7.47;;;3.30;;
2486;SDS011;1254;49.144;8.212;2022-10-22T15:05:06;3.73;;;3.43;;
2486;SDS011;1254;49.144;8.212;2022-10-22T15:07:34;5.90;;;3.90;;
2486;SDS011;1254;49.144;8.212;2022-10-22T15:10:03;7.00;;;3.03;;
2486;SDS011;1254;49.144;8.212;2022-10-22T15:12:33;4.80;;;3.27;;
2486;SDS011;1254;49.144;8.212;2022-10-22T15:15:02;8.50;;;3.67;;
2486;SDS011;1254;49.144;8.212;2022-10-22T15:17:31;3.83;;;2.73;;
2486;SDS011;1254;49.144;8.212;2022-10-22T15:19:59;3.30;;;3.00;;
2486;SDS011;1254;49.144;8.212;2022-10-22T15:22:29;3.17;;;2.80;;
2486;SDS011;1254;49.144;8.212;2022-10-22T15:25:00;4.83;;;3.00;;
2486;SDS011;1254;49.144;8.212;2022-10-22T15:27:29;13.60;;;3.10;;
2486;SDS011;1254;49.144;8.212;2022-10-22T15:29:59;7.83;;;2.60;;
2486;SDS011;1254;49.144;8.212;2022-10-22T15:32:27;5.93;;;2.60;;
2486;SDS011;1254;49.144;8.212;2022-10-22T15:34:55;4.63;;;2.40;;
2486;SDS011;1254;49.144;8.212;2022-10-22T15:37:23;2.80;;;2.20;;
2486;SDS011;1254;49.144;8.212;2022-10-22T15:39:51;2.10;;;2.00;;
2486;SDS011;1254;49.144;8.212;2022-10-22T15:42:19;3.73;;;2.40;;
2486;SDS011;1254;49.144;8.212;2022-10-22T15:44:48;2.37;;;2.17;;
2486;SDS011;1254;49.144;8.212;2022-10-22T15:47:24;2.40;;;1.47;;